Time;durP1;ratioP1;P1;durP2;ratioP2;P2;SDS_P1;SDS_P2;PMS_P1;PMS_P2;Temp;Humidity;BMP_temperature;BMP_pressure;BME280_temperature;BME280_humidity;BME280_pressure;Samples;Min_cycle;Max_cycle;Signal;HPM_P1;HPM_P2
2023/12/17 00:01:04;;;;;;;16.13;7.63;;;;;;;;;;5033349;28;20040;-81
2023/12/17 00:03:29;;;;;;;23.45;8.65;;;;;;;;;;5026106;28;20092;-81
2023/12/17 00:05:54;;;;;;;19.97;8.63;;;;;;;;;;5045842;28;20366;-81
2023/12/17 00:08:20;;;;;;;22.60;9.97;;;;;;;;;;5034348;28;20761;-81
2023/12/17 00:10:54;;;;;;;19.58;10.00;;;;;;;;;;5032114;28;20267;-81
2023/12/17 00:13:19;;;;;;;26.95;13.25;;;;;;;;;;5032054;28;20025;-81
2023/12/17 00:15:45;;;;;;;33.28;13.05;;;;;;;;;;5032693;28;20379;-81
2023/12/17 00:18:11;;;;;;;20.27;10.57;;;;;;;;;;5038023;28;20017;-81
2023/12/17 00:20:36;;;;;;;27.67;11.80;;;;;;;;;;5036301;28;20017;-81
2023/12/17 00:23:04;;;;;;;19.87;10.10;;;;;;;;;;5032370;28;20017;-81
2023/12/17 00:25:29;;;;;;;16.58;9.13;;;;;;;;;;5032249;28;20821;-81
2023/12/17 00:27:54;;;;;;;21.20;9.53;;;;;;;;;;5035868;28;20148;-81
2023/12/17 00:30:20;;;;;;;19.97;8.60;;;;;;;;;;5034717;28;20325;-81
2023/12/17 00:32:45;;;;;;;14.30;7.80;;;;;;;;;;5036051;28;20330;-81
2023/12/17 00:35:10;;;;;;;20.43;8.83;;;;;;;;;;5034406;28;20646;-81
2023/12/17 00:37:35;;;;;;;18.00;8.23;;;;;;;;;;5032683;28;20293;-81
2023/12/17 00:40:00;;;;;;;15.87;7.20;;;;;;;;;;5031458;28;20266;-81
2023/12/17 00:42:26;;;;;;;20.17;8.93;;;;;;;;;;5038172;28;20270;-81
2023/12/17 00:44:51;;;;;;;16.33;7.60;;;;;;;;;;5025899;28;20017;-81
2023/12/17 00:47:16;;;;;;;12.73;7.10;;;;;;;;;;5036182;28;20277;-81
2023/12/17 00:49:41;;;;;;;18.53;8.03;;;;;;;;;;5035164;28;20279;-81
2023/12/17 00:52:06;;;;;;;16.97;8.10;;;;;;;;;;5032597;28;20277;-81
2023/12/17 00:54:32;;;;;;;21.50;9.53;;;;;;;;;;5036081;28;20270;-81
2023/12/17 00:56:57;;;;;;;22.52;10.15;;;;;;;;;;5030174;28;20281;-81
2023/12/17 00:59:22;;;;;;;15.82;6.95;;;;;;;;;;5029416;28;20105;-81
2023/12/17 01:01:47;;;;;;;18.65;8.35;;;;;;;;;;5038704;28;20017;-81
2023/12/17 01:04:13;;;;;;;23.00;10.23;;;;;;;;;;5037109;28;20045;-81
2023/12/17 01:06:38;;;;;;;23.10;10.67;;;;;;;;;;5035099;28;20269;-81
2023/12/17 01:09:03;;;;;;;20.80;10.87;;;;;;;;;;5035380;28;20270;-82
2023/12/17 01:11:28;;;;;;;24.27;11.43;;;;;;;;;;5034777;28;20267;-81
2023/12/17 01:13:54;;;;;;;20.65;11.07;;;;;;;;;;5038176;28;20320;-81
2023/12/17 01:16:19;;;;;;;29.15;11.60;;;;;;;;;;5037105;28;20064;-81
2023/12/17 01:18:44;;;;;;;20.27;10.27;;;;;;;;;;5020840;28;20437;-81
2023/12/17 01:21:09;;;;;;;17.07;9.50;;;;;;;;;;5034517;28;20618;-81
2023/12/17 01:23:35;;;;;;;16.08;9.40;;;;;;;;;;5042774;28;20258;-81
2023/12/17 01:26:00;;;;;;;19.20;10.23;;;;;;;;;;5034159;28;20032;-81
2023/12/17 01:28:26;;;;;;;17.33;8.35;;;;;;;;;;5037224;28;20029;-81
2023/12/17 01:30:51;;;;;;;13.70;8.20;;;;;;;;;;5027264;28;20426;-81
2023/12/17 01:33:16;;;;;;;21.07;7.73;;;;;;;;;;5030885;28;20807;-81
2023/12/17 01:35:41;;;;;;;25.23;8.15;;;;;;;;;;5045219;28;20297;-81
2023/12/17 01:38:06;;;;;;;19.70;7.70;;;;;;;;;;5041660;28;20380;-81
2023/12/17 01:40:32;;;;;;;12.93;6.77;;;;;;;;;;5043342;28;20599;-81
2023/12/17 01:42:57;;;;;;;16.77;8.43;;;;;;;;;;5044835;28;20665;-81
2023/12/17 01:45:22;;;;;;;19.08;9.32;;;;;;;;;;5041391;28;20030;-81
2023/12/17 01:47:48;;;;;;;16.17;9.07;;;;;;;;;;5040594;28;20552;-81
2023/12/17 01:50:14;;;;;;;17.60;8.32;;;;;;;;;;5045435;28;20293;-81
2023/12/17 01:52:39;;;;;;;22.35;8.98;;;;;;;;;;5044855;28;20031;-81
2023/12/17 01:55:05;;;;;;;21.33;9.07;;;;;;;;;;5035309;28;20100;-81
2023/12/17 01:57:30;;;;;;;26.35;8.40;;;;;;;;;;5041328;28;20089;-81
2023/12/17 01:59:56;;;;;;;15.60;8.10;;;;;;;;;;5046819;28;20438;-81
2023/12/17 02:02:21;;;;;;;13.85;7.95;;;;;;;;;;5038659;28;20018;-81
2023/12/17 02:04:46;;;;;;;20.85;11.18;;;;;;;;;;5037674;28;20383;-81
2023/12/17 02:07:11;;;;;;;23.42;9.70;;;;;;;;;;5046549;28;20044;-81
2023/12/17 02:09:37;;;;;;;23.42;11.50;;;;;;;;;;5045486;28;20017;-81
2023/12/17 02:12:02;;;;;;;18.77;10.45;;;;;;;;;;5044260;28;20020;-81
2023/12/17 02:14:27;;;;;;;21.88;10.35;;;;;;;;;;5039104;28;20029;-81
2023/12/17 02:16:53;;;;;;;19.03;9.73;;;;;;;;;;5036600;28;20017;-81
2023/12/17 02:19:18;;;;;;;16.25;8.95;;;;;;;;;;5043135;28;20281;-81
2023/12/17 02:21:43;;;;;;;16.67;8.23;;;;;;;;;;5046790;28;20465;-81
2023/12/17 02:24:08;;;;;;;18.02;8.35;;;;;;;;;;5051357;28;20676;-81
2023/12/17 02:26:34;;;;;;;20.00;7.63;;;;;;;;;;5040788;28;20025;-81
2023/12/17 02:28:59;;;;;;;21.90;9.90;;;;;;;;;;5042194;28;20436;-81
2023/12/17 02:31:24;;;;;;;20.40;8.90;;;;;;;;;;5043152;28;20029;-81
2023/12/17 02:33:49;;;;;;;16.50;8.83;;;;;;;;;;5047988;28;20302;-81
2023/12/17 02:36:15;;;;;;;20.77;10.50;;;;;;;;;;5043946;28;20282;-81
2023/12/17 02:38:40;;;;;;;22.02;9.77;;;;;;;;;;5050746;28;20250;-81
2023/12/17 02:41:05;;;;;;;14.70;8.93;;;;;;;;;;5036398;28;20067;-81
2023/12/17 02:43:30;;;;;;;18.10;9.70;;;;;;;;;;5051385;28;20269;-81
2023/12/17 02:45:56;;;;;;;18.92;8.35;;;;;;;;;;5042012;28;20021;-81
2023/12/17 02:48:21;;;;;;;16.27;8.10;;;;;;;;;;5043434;28;20381;-80
2023/12/17 02:50:46;;;;;;;19.63;8.07;;;;;;;;;;5045279;28;20791;-81
2023/12/17 02:53:11;;;;;;;12.67;6.93;;;;;;;;;;5043367;28;20753;-81
2023/12/17 02:55:36;;;;;;;13.67;7.67;;;;;;;;;;5040443;28;20301;-81
2023/12/17 02:58:05;;;;;;;19.00;8.10;;;;;;;;;;5044201;28;20341;-81
2023/12/17 03:00:30;;;;;;;16.75;7.78;;;;;;;;;;5036990;28;20274;-81
2023/12/17 03:02:56;;;;;;;18.30;8.40;;;;;;;;;;5043763;28;20016;-81
2023/12/17 03:05:21;;;;;;;15.30;8.63;;;;;;;;;;5037978;28;20049;-81
2023/12/17 03:07:47;;;;;;;12.77;7.27;;;;;;;;;;5038102;28;20461;-81
2023/12/17 03:10:12;;;;;;;15.73;9.13;;;;;;;;;;5046194;28;20320;-81
2023/12/17 03:12:37;;;;;;;12.23;7.67;;;;;;;;;;5026215;28;20259;-81
2023/12/17 03:15:02;;;;;;;16.55;9.10;;;;;;;;;;5039919;28;20258;-81
2023/12/17 03:17:28;;;;;;;26.05;7.35;;;;;;;;;;5039567;28;20026;-81
2023/12/17 03:19:54;;;;;;;17.73;8.15;;;;;;;;;;5036418;28;20013;-81
2023/12/17 03:22:19;;;;;;;17.58;7.63;;;;;;;;;;5032557;28;20397;-81
2023/12/17 03:24:44;;;;;;;15.75;8.00;;;;;;;;;;5031781;28;20496;-81
2023/12/17 03:27:10;;;;;;;16.53;8.27;;;;;;;;;;5031906;28;20074;-81
2023/12/17 03:29:35;;;;;;;23.23;8.97;;;;;;;;;;5038939;28;20341;-81
2023/12/17 03:32:02;;;;;;;15.32;8.43;;;;;;;;;;5046835;28;20324;-81
2023/12/17 03:34:27;;;;;;;15.32;7.63;;;;;;;;;;5050347;28;20028;-81
2023/12/17 03:36:52;;;;;;;15.23;6.82;;;;;;;;;;5048550;28;20358;-81
2023/12/17 03:39:18;;;;;;;17.23;7.37;;;;;;;;;;5044179;28;20029;-81
2023/12/17 03:41:43;;;;;;;13.52;7.07;;;;;;;;;;5037687;28;20271;-81
2023/12/17 03:44:08;;;;;;;12.23;6.47;;;;;;;;;;5028933;28;20036;-81
2023/12/17 03:46:34;;;;;;;15.03;7.53;;;;;;;;;;5039317;28;20259;-81
2023/12/17 03:48:59;;;;;;;14.45;7.40;;;;;;;;;;5043238;28;20270;-81
2023/12/17 03:51:24;;;;;;;22.10;8.37;;;;;;;;;;5033144;28;20026;-81
2023/12/17 03:53:49;;;;;;;15.07;7.57;;;;;;;;;;5039435;28;20280;-81
2023/12/17 03:56:16;;;;;;;16.05;7.95;;;;;;;;;;5033620;28;20297;-81
2023/12/17 03:58:42;;;;;;;18.38;7.80;;;;;;;;;;5038564;28;20082;-81
2023/12/17 04:01:08;;;;;;;18.40;8.50;;;;;;;;;;5015781;28;20124;-81
2023/12/17 04:03:33;;;;;;;11.30;7.32;;;;;;;;;;5038439;28;20117;-81
2023/12/17 04:05:59;;;;;;;19.50;8.68;;;;;;;;;;5041410;28;20052;-81
2023/12/17 04:08:24;;;;;;;16.33;8.20;;;;;;;;;;5036767;28;20021;-81
2023/12/17 04:10:50;;;;;;;15.07;7.47;;;;;;;;;;5030836;28;20473;-81
2023/12/17 04:13:15;;;;;;;16.58;7.68;;;;;;;;;;5037571;28;20037;-81
2023/12/17 04:15:40;;;;;;;16.53;6.07;;;;;;;;;;5038710;28;20032;-81
2023/12/17 04:18:05;;;;;;;12.10;7.32;;;;;;;;;;5041101;28;20250;-81
2023/12/17 04:20:31;;;;;;;13.43;6.13;;;;;;;;;;5039242;28;20068;-81
2023/12/17 04:22:56;;;;;;;16.63;8.13;;;;;;;;;;5043122;28;20028;-81
2023/12/17 04:25:22;;;;;;;14.13;7.45;;;;;;;;;;5037613;28;20263;-81
2023/12/17 04:27:47;;;;;;;12.98;7.88;;;;;;;;;;5038905;28;20079;-81
2023/12/17 04:30:12;;;;;;;14.48;6.63;;;;;;;;;;5041860;28;20017;-81
2023/12/17 04:32:37;;;;;;;12.13;6.50;;;;;;;;;;5036042;28;20476;-80
2023/12/17 04:35:03;;;;;;;15.53;7.10;;;;;;;;;;5035035;28;20677;-81
2023/12/17 04:37:29;;;;;;;14.30;6.03;;;;;;;;;;5046256;28;20282;-81
2023/12/17 04:39:54;;;;;;;13.38;6.30;;;;;;;;;;5037377;28;20028;-81
2023/12/17 04:42:19;;;;;;;11.60;6.63;;;;;;;;;;5024408;28;20025;-81
2023/12/17 04:44:44;;;;;;;12.05;7.45;;;;;;;;;;5035931;28;20292;-81
2023/12/17 04:47:10;;;;;;;12.53;6.83;;;;;;;;;;5040192;28;20025;-81
2023/12/17 04:49:36;;;;;;;16.63;6.60;;;;;;;;;;5032379;28;20267;-81
2023/12/17 04:52:01;;;;;;;10.00;6.30;;;;;;;;;;5035895;28;20014;-81
2023/12/17 04:54:26;;;;;;;17.42;7.88;;;;;;;;;;5039708;28;20042;-81
2023/12/17 04:56:54;;;;;;;14.18;7.07;;;;;;;;;;5038247;28;20017;-81
2023/12/17 04:59:20;;;;;;;14.30;6.70;;;;;;;;;;5034467;28;20480;-81
2023/12/17 05:01:45;;;;;;;10.43;6.25;;;;;;;;;;5033182;28;20032;-81
2023/12/17 05:04:10;;;;;;;13.27;7.53;;;;;;;;;;5035694;28;20106;-81
2023/12/17 05:06:35;;;;;;;11.03;6.03;;;;;;;;;;5037308;28;20646;-81
2023/12/17 05:09:01;;;;;;;12.43;6.07;;;;;;;;;;5038804;28;20638;-81
2023/12/17 05:11:26;;;;;;;14.70;6.33;;;;;;;;;;5016958;28;20656;-81
2023/12/17 05:13:51;;;;;;;9.90;5.90;;;;;;;;;;5035748;28;20270;-81
2023/12/17 05:16:16;;;;;;;11.07;6.17;;;;;;;;;;5031070;28;20332;-81
2023/12/17 05:18:41;;;;;;;12.50;6.53;;;;;;;;;;5030563;28;20254;-81
2023/12/17 05:21:07;;;;;;;14.83;6.50;;;;;;;;;;5034695;28;20271;-81
2023/12/17 05:23:33;;;;;;;14.50;6.50;;;;;;;;;;5033833;28;20754;-81
2023/12/17 05:25:58;;;;;;;11.57;5.80;;;;;;;;;;5031323;28;20030;-81
2023/12/17 05:28:24;;;;;;;10.85;6.03;;;;;;;;;;5041591;28;20271;-81
2023/12/17 05:30:49;;;;;;;15.98;5.82;;;;;;;;;;5047034;28;20109;-81
2023/12/17 05:33:14;;;;;;;10.73;6.07;;;;;;;;;;5039484;28;20021;-81
2023/12/17 05:35:39;;;;;;;16.40;6.40;;;;;;;;;;5047382;28;20304;-81
2023/12/17 05:38:05;;;;;;;10.97;6.60;;;;;;;;;;5009816;28;20264;-81
2023/12/17 05:40:30;;;;;;;10.10;5.67;;;;;;;;;;5038128;28;20325;-81
2023/12/17 05:42:55;;;;;;;10.83;6.23;;;;;;;;;;5040114;28;20469;-81
2023/12/17 05:45:20;;;;;;;14.33;6.27;;;;;;;;;;5031451;28;20266;-81
2023/12/17 05:47:46;;;;;;;18.57;5.77;;;;;;;;;;5036181;28;20255;-81
2023/12/17 05:50:11;;;;;;;15.93;5.47;;;;;;;;;;5040407;28;20262;-81
2023/12/17 05:52:37;;;;;;;15.60;6.85;;;;;;;;;;5037324;28;20024;-81
2023/12/17 05:55:02;;;;;;;9.63;4.93;;;;;;;;;;5037368;28;20013;-81
2023/12/17 05:57:27;;;;;;;14.25;6.55;;;;;;;;;;5046284;28;20281;-81
2023/12/17 05:59:52;;;;;;;11.07;5.47;;;;;;;;;;5030051;28;20175;-81
2023/12/17 06:02:17;;;;;;;8.47;5.80;;;;;;;;;;5035719;28;20024;-82
2023/12/17 06:04:43;;;;;;;9.93;5.77;;;;;;;;;;5035823;28;20292;-81
2023/12/17 06:07:08;;;;;;;11.50;5.83;;;;;;;;;;5040246;28;20400;-81
2023/12/17 06:09:33;;;;;;;11.77;6.13;;;;;;;;;;5039346;28;20353;-81
2023/12/17 06:11:58;;;;;;;11.53;5.43;;;;;;;;;;5032417;28;20284;-81
2023/12/17 06:14:23;;;;;;;9.73;5.20;;;;;;;;;;5037190;28;20302;-81
2023/12/17 06:16:49;;;;;;;11.65;5.03;;;;;;;;;;5035533;28;20418;-81
2023/12/17 06:19:14;;;;;;;11.35;5.60;;;;;;;;;;5039769;28;20466;-81
2023/12/17 06:21:39;;;;;;;20.67;5.78;;;;;;;;;;5035040;28;20500;-81
2023/12/17 06:24:05;;;;;;;12.23;6.32;;;;;;;;;;5030340;28;20026;-81
2023/12/17 06:26:30;;;;;;;10.82;5.78;;;;;;;;;;5032078;28;20031;-81
2023/12/17 06:28:56;;;;;;;11.45;6.40;;;;;;;;;;5040520;28;20022;-81
2023/12/17 06:31:21;;;;;;;14.57;6.28;;;;;;;;;;5050526;28;20492;-81
2023/12/17 06:33:47;;;;;;;12.15;6.20;;;;;;;;;;5027498;28;20054;-81
2023/12/17 06:36:12;;;;;;;11.80;6.25;;;;;;;;;;5036427;28;20028;-81
2023/12/17 06:38:40;;;;;;;13.57;6.25;;;;;;;;;;5035877;28;20282;-81
2023/12/17 06:41:07;;;;;;;10.25;6.18;;;;;;;;;;5033185;28;20029;-81
2023/12/17 06:43:32;;;;;;;10.10;6.22;;;;;;;;;;5031814;28;20050;-81
2023/12/17 06:45:58;;;;;;;13.38;5.85;;;;;;;;;;5039263;28;20508;-81
2023/12/17 06:48:23;;;;;;;9.25;5.43;;;;;;;;;;5038093;28;20044;-80
2023/12/17 06:50:48;;;;;;;12.38;6.68;;;;;;;;;;5034175;28;20018;-81
2023/12/17 06:53:16;;;;;;;15.48;6.15;;;;;;;;;;5034180;28;20021;-81
2023/12/17 06:55:42;;;;;;;12.45;5.88;;;;;;;;;;5038768;28;20048;-80
2023/12/17 06:58:07;;;;;;;12.70;6.53;;;;;;;;;;5034267;28;20026;-81
2023/12/17 07:00:34;;;;;;;12.43;6.07;;;;;;;;;;5035635;28;20083;-81
2023/12/17 07:02:59;;;;;;;9.75;6.03;;;;;;;;;;5027676;28;20026;-81
2023/12/17 07:05:25;;;;;;;7.78;5.47;;;;;;;;;;5033671;28;20397;-81
2023/12/17 07:07:50;;;;;;;11.40;5.70;;;;;;;;;;5032832;28;20021;-81
2023/12/17 07:10:16;;;;;;;7.33;4.87;;;;;;;;;;5025862;28;20017;-81
2023/12/17 07:12:41;;;;;;;9.80;6.03;;;;;;;;;;5034545;28;20315;-81
2023/12/17 07:15:07;;;;;;;7.95;5.00;;;;;;;;;;5032815;28;20064;-81
2023/12/17 07:17:32;;;;;;;13.32;5.60;;;;;;;;;;5033723;28;20101;-81
2023/12/17 07:19:57;;;;;;;16.42;5.47;;;;;;;;;;5025674;28;20029;-81
2023/12/17 07:22:23;;;;;;;8.13;4.97;;;;;;;;;;5036670;28;20025;-81
2023/12/17 07:24:49;;;;;;;9.87;4.93;;;;;;;;;;5050079;28;20410;-81
2023/12/17 07:27:14;;;;;;;10.68;6.18;;;;;;;;;;5038950;28;20316;-81
2023/12/17 07:29:39;;;;;;;10.90;5.03;;;;;;;;;;5043321;28;20430;-81
2023/12/17 07:32:05;;;;;;;7.60;5.38;;;;;;;;;;5047001;28;20029;-81
2023/12/17 07:34:30;;;;;;;16.07;5.80;;;;;;;;;;5033526;28;20477;-82
2023/12/17 07:36:55;;;;;;;8.68;4.40;;;;;;;;;;5039321;28;20267;-81
2023/12/17 07:39:20;;;;;;;12.33;5.33;;;;;;;;;;5034398;28;20024;-81
2023/12/17 07:41:46;;;;;;;11.27;4.85;;;;;;;;;;5033205;28;20262;-81
2023/12/17 07:44:11;;;;;;;9.20;5.10;;;;;;;;;;5045048;28;20021;-81
2023/12/17 07:46:36;;;;;;;13.30;4.82;;;;;;;;;;5031831;28;20025;-81
2023/12/17 07:49:01;;;;;;;11.40;5.77;;;;;;;;;;5037239;28;20422;-81
2023/12/17 07:51:26;;;;;;;8.03;4.80;;;;;;;;;;5040301;28;20843;-81
2023/12/17 07:53:52;;;;;;;9.00;4.57;;;;;;;;;;5038840;28;20763;-81
2023/12/17 07:56:17;;;;;;;9.90;5.43;;;;;;;;;;5035205;28;20337;-81
2023/12/17 07:58:43;;;;;;;13.85;5.55;;;;;;;;;;5045555;28;20496;-81
2023/12/17 08:01:09;;;;;;;12.55;5.80;;;;;;;;;;5039703;28;20051;-81
2023/12/17 08:03:34;;;;;;;13.00;5.15;;;;;;;;;;5038743;28;20033;-80
2023/12/17 08:06:00;;;;;;;10.43;5.50;;;;;;;;;;5035747;28;20072;-80
2023/12/17 08:08:25;;;;;;;9.27;5.18;;;;;;;;;;5036029;28;20021;-81
2023/12/17 08:10:50;;;;;;;10.27;5.43;;;;;;;;;;5029002;28;20032;-81
2023/12/17 08:13:15;;;;;;;9.07;5.13;;;;;;;;;;5037963;28;20021;-80
2023/12/17 08:15:41;;;;;;;10.18;5.43;;;;;;;;;;5043870;28;20424;-82
2023/12/17 08:18:06;;;;;;;9.43;5.22;;;;;;;;;;5038046;28;20017;-80
2023/12/17 08:20:31;;;;;;;10.90;5.18;;;;;;;;;;5034582;28;20018;-81
2023/12/17 08:22:57;;;;;;;7.60;5.00;;;;;;;;;;5032101;28;20454;-81
2023/12/17 08:25:22;;;;;;;6.70;4.78;;;;;;;;;;5023454;28;20627;-82
2023/12/17 08:27:48;;;;;;;13.45;5.80;;;;;;;;;;5031940;28;20021;-81
2023/12/17 08:30:13;;;;;;;10.65;5.70;;;;;;;;;;5038880;28;20070;-81
2023/12/17 08:32:38;;;;;;;10.02;5.28;;;;;;;;;;5032554;28;20500;-83
2023/12/17 08:35:04;;;;;;;6.75;4.25;;;;;;;;;;5030253;28;20156;-81
2023/12/17 08:37:29;;;;;;;8.23;4.97;;;;;;;;;;5038375;28;20055;-83
2023/12/17 08:39:58;;;;;;;11.45;7.28;;;;;;;;;;5028938;28;20029;-82
2023/12/17 08:42:23;;;;;;;7.65;4.72;;;;;;;;;;5030069;28;20028;-84
2023/12/17 08:44:49;;;;;;;8.73;4.05;;;;;;;;;;5030272;28;20021;-83
2023/12/17 08:47:15;;;;;;;10.43;4.40;;;;;;;;;;5039231;28;20025;-83
2023/12/17 08:49:40;;;;;;;9.25;4.75;;;;;;;;;;5018019;28;20516;-83
2023/12/17 08:52:05;;;;;;;9.27;4.83;;;;;;;;;;5037634;28;20100;-83
2023/12/17 08:54:31;;;;;;;10.30;5.10;;;;;;;;;;5031671;28;20361;-82
2023/12/17 08:56:56;;;;;;;13.13;4.47;;;;;;;;;;5030867;28;20329;-84
2023/12/17 08:59:21;;;;;;;9.55;4.82;;;;;;;;;;5033160;28;20037;-84
2023/12/17 09:01:47;;;;;;;12.15;5.47;;;;;;;;;;5037570;28;20021;-84
2023/12/17 09:04:12;;;;;;;11.18;4.82;;;;;;;;;;5030249;28;20063;-84
2023/12/17 09:06:44;;;;;;;9.57;4.57;;;;;;;;;;5029112;28;20237;-85
2023/12/17 09:09:09;;;;;;;;;;;;;;;;;;5032556;28;20333;-84
2023/12/17 09:11:34;;;;;;;8.65;4.55;;;;;;;;;;5024732;28;19913;-85
2023/12/17 09:14:00;;;;;;;10.73;4.70;;;;;;;;;;5027395;28;20025;-85
2023/12/17 09:16:25;;;;;;;11.73;4.90;;;;;;;;;;5028688;28;20282;-84
2023/12/17 09:18:50;;;;;;;23.47;6.03;;;;;;;;;;5031700;28;20324;-84
2023/12/17 09:21:15;;;;;;;8.80;4.70;;;;;;;;;;5033652;28;20251;-82
2023/12/17 09:23:40;;;;;;;9.47;4.90;;;;;;;;;;5011549;28;20018;-82
2023/12/17 09:26:06;;;;;;;9.60;4.93;;;;;;;;;;5029088;28;20301;-83
2023/12/17 09:28:31;;;;;;;11.65;7.00;;;;;;;;;;5020315;28;20289;-83
2023/12/17 09:30:57;;;;;;;10.38;5.30;;;;;;;;;;5045637;28;20680;-83
2023/12/17 09:33:23;;;;;;;8.88;4.93;;;;;;;;;;5016438;28;20017;-83
2023/12/17 09:35:48;;;;;;;13.50;6.57;;;;;;;;;;5019255;28;20037;-83
2023/12/17 09:38:15;;;;;;;18.25;7.00;;;;;;;;;;5026952;28;20017;-82
2023/12/17 09:40:41;;;;;;;12.13;6.68;;;;;;;;;;5031342;28;20110;-82
2023/12/17 09:43:08;;;;;;;12.63;7.57;;;;;;;;;;5029638;28;20490;-82
2023/12/17 09:45:33;;;;;;;14.05;7.18;;;;;;;;;;5030090;28;20112;-82
2023/12/17 09:47:58;;;;;;;12.95;7.53;;;;;;;;;;5031089;28;20132;-83
2023/12/17 09:50:27;;;;;;;13.60;8.02;;;;;;;;;;5029779;28;20485;-83
2023/12/17 09:52:52;;;;;;;14.43;7.97;;;;;;;;;;5028190;28;20017;-83
2023/12/17 09:55:18;;;;;;;15.30;7.82;;;;;;;;;;5029908;28;20047;-83
2023/12/17 09:57:43;;;;;;;14.02;7.18;;;;;;;;;;5030458;28;20071;-83
2023/12/17 10:00:10;;;;;;;11.67;6.87;;;;;;;;;;5028670;28;20080;-83
2023/12/17 10:02:35;;;;;;;14.55;7.13;;;;;;;;;;5029923;28;20349;-83
2023/12/17 10:05:01;;;;;;;15.10;7.72;;;;;;;;;;5028930;28;20132;-83
2023/12/17 10:07:26;;;;;;;12.20;7.35;;;;;;;;;;5028927;28;20105;-83
2023/12/17 10:09:52;;;;;;;14.07;7.67;;;;;;;;;;5030194;28;20025;-83
2023/12/17 10:12:17;;;;;;;10.93;6.72;;;;;;;;;;5027855;28;20286;-82
2023/12/17 10:14:42;;;;;;;12.57;6.70;;;;;;;;;;5029011;28;20029;-83
2023/12/17 10:17:08;;;;;;;9.73;5.88;;;;;;;;;;5028657;28;20282;-83
2023/12/17 10:19:33;;;;;;;9.93;5.90;;;;;;;;;;5028834;28;20026;-83
2023/12/17 10:22:05;;;;;;;12.23;6.10;;;;;;;;;;5029255;28;20517;-83
2023/12/17 10:24:37;;;;;;;12.70;5.95;;;;;;;;;;5026427;28;20259;-83
2023/12/17 10:27:05;;;;;;;12.20;6.53;;;;;;;;;;5027038;28;20528;-83
2023/12/17 10:29:32;;;;;;;18.17;10.07;;;;;;;;;;5045264;28;20075;-82
2023/12/17 10:31:57;;;;;;;10.57;6.97;;;;;;;;;;5030297;28;20025;-83
2023/12/17 10:34:23;;;;;;;14.85;7.05;;;;;;;;;;5031077;28;20054;-82
2023/12/17 10:36:48;;;;;;;12.80;7.95;;;;;;;;;;5029675;28;20029;-82
2023/12/17 10:39:15;;;;;;;12.63;7.22;;;;;;;;;;5027033;28;20028;-83
2023/12/17 10:41:40;;;;;;;12.43;7.88;;;;;;;;;;5027911;28;20025;-82
2023/12/17 10:44:06;;;;;;;16.88;8.30;;;;;;;;;;5032414;28;20017;-82
2023/12/17 10:46:32;;;;;;;14.27;7.68;;;;;;;;;;5032138;28;20025;-84
2023/12/17 10:48:57;;;;;;;13.15;7.97;;;;;;;;;;5031988;28;20091;-82
2023/12/17 10:51:23;;;;;;;16.30;8.65;;;;;;;;;;5030018;28;20031;-82
2023/12/17 10:53:48;;;;;;;13.13;7.47;;;;;;;;;;5035092;28;20039;-82
2023/12/17 10:56:14;;;;;;;12.70;7.78;;;;;;;;;;5033767;28;20017;-82
2023/12/17 10:58:40;;;;;;;12.85;7.93;;;;;;;;;;5034908;28;20532;-82
2023/12/17 11:01:06;;;;;;;14.77;8.25;;;;;;;;;;5038000;28;20017;-83
2023/12/17 11:03:31;;;;;;;13.27;7.68;;;;;;;;;;5032367;28;20121;-83
2023/12/17 11:05:58;;;;;;;20.92;7.25;;;;;;;;;;5037986;28;20034;-82
2023/12/17 11:08:24;;;;;;;24.42;7.82;;;;;;;;;;5039808;28;20419;-82
2023/12/17 11:10:50;;;;;;;16.30;7.50;;;;;;;;;;5028170;28;20021;-82
2023/12/17 11:13:15;;;;;;;15.55;6.80;;;;;;;;;;5030272;28;20557;-82
2023/12/17 11:15:40;;;;;;;14.20;7.37;;;;;;;;;;5036054;28;20028;-83
2023/12/17 11:18:05;;;;;;;12.90;7.40;;;;;;;;;;5025579;28;20266;-83
2023/12/17 11:20:33;;;;;;;12.10;6.67;;;;;;;;;;5028703;28;20289;-82
2023/12/17 11:22:59;;;;;;;11.15;6.82;;;;;;;;;;5033301;28;20286;-83
2023/12/17 11:25:28;;;;;;;17.65;7.22;;;;;;;;;;5038843;28;20064;-82
2023/12/17 11:27:53;;;;;;;17.63;6.95;;;;;;;;;;5032332;28;20488;-83
2023/12/17 11:30:31;;;;;;;16.00;7.13;;;;;;;;;;5033262;28;20125;-83
2023/12/17 11:32:58;;;;;;;13.52;7.30;;;;;;;;;;5036007;28;20104;-83
2023/12/17 11:35:23;;;;;;;16.88;6.63;;;;;;;;;;5030459;28;20025;-86
2023/12/17 11:37:48;;;;;;;14.13;7.07;;;;;;;;;;5044476;28;20249;-86
2023/12/17 11:40:13;;;;;;;14.13;6.73;;;;;;;;;;5016822;28;20014;-85
2023/12/17 11:42:40;;;;;;;14.52;6.78;;;;;;;;;;5030964;28;20329;-85
2023/12/17 11:45:06;;;;;;;13.73;5.90;;;;;;;;;;5032384;28;20561;-86
2023/12/17 11:47:31;;;;;;;13.23;5.50;;;;;;;;;;5033258;28;20136;-86
2023/12/17 11:49:59;;;;;;;12.77;6.65;;;;;;;;;;5033417;28;20084;-83
2023/12/17 11:52:25;;;;;;;11.00;6.32;;;;;;;;;;5030300;28;20033;-84
2023/12/17 11:55:00;;;;;;;11.30;5.70;;;;;;;;;;5036455;28;20381;-84
2023/12/17 11:57:26;;;;;;;12.75;5.57;;;;;;;;;;5050460;28;20488;-84
2023/12/17 11:59:52;;;;;;;11.45;5.00;;;;;;;;;;5032184;28;20021;-84
2023/12/17 12:02:18;;;;;;;10.57;5.20;;;;;;;;;;5035920;28;20031;-84
2023/12/17 12:04:44;;;;;;;11.43;4.85;;;;;;;;;;5028294;28;20397;-84
2023/12/17 12:07:10;;;;;;;16.10;5.57;;;;;;;;;;5022274;28;20044;-85
2023/12/17 12:09:35;;;;;;;10.27;5.10;;;;;;;;;;5026411;28;20016;-84
2023/12/17 12:12:00;;;;;;;12.55;4.32;;;;;;;;;;5027738;28;20031;-84
2023/12/17 12:14:25;;;;;;;8.00;4.43;;;;;;;;;;5032211;28;20478;-84
2023/12/17 12:16:52;;;;;;;7.40;3.88;;;;;;;;;;5031896;28;20321;-85
2023/12/17 12:19:18;;;;;;;9.82;4.07;;;;;;;;;;5033490;28;20040;-85
2023/12/17 12:21:43;;;;;;;9.57;3.90;;;;;;;;;;5039344;28;20354;-84
2023/12/17 12:24:09;;;;;;;13.02;4.38;;;;;;;;;;5039222;28;20016;-84
2023/12/17 12:26:34;;;;;;;6.20;3.60;;;;;;;;;;5027610;28;20025;-84
2023/12/17 12:29:00;;;;;;;7.18;3.35;;;;;;;;;;5032821;28;20457;-84
2023/12/17 12:31:26;;;;;;;8.32;4.03;;;;;;;;;;5035272;28;20053;-84
2023/12/17 12:33:55;;;;;;;5.78;3.50;;;;;;;;;;5036787;28;20052;-83
2023/12/17 12:36:20;;;;;;;9.38;3.63;;;;;;;;;;5031820;28;20117;-84
2023/12/17 12:38:57;;;;;;;9.07;3.00;;;;;;;;;;5038242;28;20453;-84
2023/12/17 12:41:23;;;;;;;8.27;3.42;;;;;;;;;;5026446;28;20025;-84
2023/12/17 12:43:51;;;;;;;8.00;2.97;;;;;;;;;;5029465;28;20148;-84
2023/12/17 12:46:17;;;;;;;9.68;3.03;;;;;;;;;;5025529;28;20421;-84
2023/12/17 12:48:42;;;;;;;9.80;3.53;;;;;;;;;;5032002;28;20021;-83
2023/12/17 12:51:07;;;;;;;9.90;3.37;;;;;;;;;;5036165;28;20067;-82
2023/12/17 12:53:32;;;;;;;17.87;4.30;;;;;;;;;;5033290;28;20285;-82
2023/12/17 12:55:58;;;;;;;10.57;3.63;;;;;;;;;;5031040;28;20286;-80
2023/12/17 12:58:23;;;;;;;9.70;3.42;;;;;;;;;;5025002;28;20021;-80
2023/12/17 13:00:49;;;;;;;7.18;2.95;;;;;;;;;;5032084;28;20021;-80
2023/12/17 13:03:14;;;;;;;7.47;3.13;;;;;;;;;;5031545;28;20040;-80
2023/12/17 13:05:40;;;;;;;10.50;3.35;;;;;;;;;;5033745;28;20489;-80
2023/12/17 13:08:06;;;;;;;5.63;2.97;;;;;;;;;;5038670;28;20029;-80
2023/12/17 13:10:32;;;;;;;6.90;3.30;;;;;;;;;;5030037;28;20025;-80
2023/12/17 13:12:57;;;;;;;8.52;3.05;;;;;;;;;;5031603;28;20493;-80
2023/12/17 13:15:22;;;;;;;14.73;3.57;;;;;;;;;;5035679;28;20108;-79
2023/12/17 13:17:47;;;;;;;8.80;3.43;;;;;;;;;;5035797;28;20279;-80
2023/12/17 13:20:13;;;;;;;9.38;3.20;;;;;;;;;;5039149;28;20265;-81
2023/12/17 13:22:38;;;;;;;13.45;3.38;;;;;;;;;;5034510;28;20032;-80
2023/12/17 13:25:04;;;;;;;4.93;2.90;;;;;;;;;;5036968;28;20108;-80
2023/12/17 13:27:29;;;;;;;8.98;3.03;;;;;;;;;;5033344;28;20036;-80
2023/12/17 13:29:54;;;;;;;6.70;2.78;;;;;;;;;;5034376;28;20029;-80
2023/12/17 13:32:20;;;;;;;8.17;2.60;;;;;;;;;;5034894;28;20030;-80
2023/12/17 13:34:45;;;;;;;9.97;3.33;;;;;;;;;;5037377;28;20274;-79
2023/12/17 13:37:10;;;;;;;12.87;3.30;;;;;;;;;;5031924;28;20286;-79
2023/12/17 13:39:36;;;;;;;7.07;2.57;;;;;;;;;;5033831;28;20262;-80
2023/12/17 13:42:02;;;;;;;7.43;2.63;;;;;;;;;;5025611;28;20349;-79
2023/12/17 13:44:27;;;;;;;7.97;2.90;;;;;;;;;;5034402;28;20096;-80
2023/12/17 13:46:52;;;;;;;4.78;2.50;;;;;;;;;;5028095;28;20052;-80
2023/12/17 13:49:17;;;;;;;7.70;2.80;;;;;;;;;;5024719;28;20025;-80
2023/12/17 13:51:43;;;;;;;9.10;3.20;;;;;;;;;;5030517;28;20278;-80
2023/12/17 13:54:08;;;;;;;10.13;3.10;;;;;;;;;;5029753;28;20309;-82
2023/12/17 13:56:33;;;;;;;10.57;2.90;;;;;;;;;;5030860;28;20022;-83
2023/12/17 13:58:58;;;;;;;13.87;3.20;;;;;;;;;;5038046;28;20844;-82
2023/12/17 14:01:25;;;;;;;8.43;2.53;;;;;;;;;;5024618;28;20303;-82
2023/12/17 14:03:52;;;;;;;11.00;3.25;;;;;;;;;;5030867;28;20064;-82
2023/12/17 14:06:18;;;;;;;10.63;3.22;;;;;;;;;;5030833;28;20376;-82
2023/12/17 14:08:43;;;;;;;8.30;2.90;;;;;;;;;;5032777;28;20021;-82
2023/12/17 14:11:08;;;;;;;8.43;2.88;;;;;;;;;;5037385;28;20052;-82
2023/12/17 14:13:33;;;;;;;7.30;2.93;;;;;;;;;;5030811;28;20083;-82
2023/12/17 14:15:59;;;;;;;12.43;3.00;;;;;;;;;;5026471;28;20289;-80
2023/12/17 14:18:24;;;;;;;7.25;2.90;;;;;;;;;;5036867;28;20262;-79
2023/12/17 14:20:49;;;;;;;8.00;3.23;;;;;;;;;;5026800;28;20444;-80
2023/12/17 14:23:14;;;;;;;7.33;2.77;;;;;;;;;;5027689;28;20259;-80